sensor_id;sensor_type;location;lat;lon;timestamp;temperature;humidity
39677;DHT22;27789;50.840;4.386;2023-02-28T00:00:44;3.00;99.90
39677;DHT22;27789;50.840;4.386;2023-02-28T00:03:09;3.20;99.90
39677;DHT22;27789;50.840;4.386;2023-02-28T00:05:35;3.10;99.90
39677;DHT22;27789;50.840;4.386;2023-02-28T00:08:00;3.10;99.90
39677;DHT22;27789;50.840;4.386;2023-02-28T00:10:28;3.10;99.90
39677;DHT22;27789;50.840;4.386;2023-02-28T00:12:54;3.10;99.90
39677;DHT22;27789;50.840;4.386;2023-02-28T00:15:22;3.10;99.90
39677;DHT22;27789;50.840;4.386;2023-02-28T00:17:48;3.00;99.90
39677;DHT22;27789;50.840;4.386;2023-02-28T00:20:14;3.00;99.90
39677;DHT22;27789;50.840;4.386;2023-02-28T00:22:47;3.00;99.90
39677;DHT22;27789;50.840;4.386;2023-02-28T00:25:13;2.90;99.90
39677;DHT22;27789;50.840;4.386;2023-02-28T00:27:39;2.90;99.90
39677;DHT22;27789;50.840;4.386;2023-02-28T00:30:07;2.90;99.90
39677;DHT22;27789;50.840;4.386;2023-02-28T00:32:33;2.90;99.90
39677;DHT22;27789;50.840;4.386;2023-02-28T00:34:59;2.90;99.90
39677;DHT22;27789;50.840;4.386;2023-02-28T00:37:25;2.90;99.90
39677;DHT22;27789;50.840;4.386;2023-02-28T00:39:50;2.90;99.90
39677;DHT22;27789;50.840;4.386;2023-02-28T00:42:16;2.80;99.90
39677;DHT22;27789;50.840;4.386;2023-02-28T00:44:41;2.80;99.90
39677;DHT22;27789;50.840;4.386;2023-02-28T00:47:07;2.80;99.90
39677;DHT22;27789;50.840;4.386;2023-02-28T00:49:32;2.80;99.90
39677;DHT22;27789;50.840;4.386;2023-02-28T00:51:58;2.80;99.90
39677;DHT22;27789;50.840;4.386;2023-02-28T00:54:23;2.80;99.90
39677;DHT22;27789;50.840;4.386;2023-02-28T00:56:49;2.80;99.90
39677;DHT22;27789;50.840;4.386;2023-02-28T00:59:16;2.80;99.90
39677;DHT22;27789;50.840;4.386;2023-02-28T01:01:41;2.80;99.90
39677;DHT22;27789;50.840;4.386;2023-02-28T01:04:07;2.80;99.90
39677;DHT22;27789;50.840;4.386;2023-02-28T01:06:33;2.80;99.90
39677;DHT22;27789;50.840;4.386;2023-02-28T01:08:58;2.70;99.90
39677;DHT22;27789;50.840;4.386;2023-02-28T01:11:24;2.70;99.90
39677;DHT22;27789;50.840;4.386;2023-02-28T01:13:50;2.70;99.90
39677;DHT22;27789;50.840;4.386;2023-02-28T01:16:15;2.70;99.90
39677;DHT22;27789;50.840;4.386;2023-02-28T01:18:41;2.70;99.90
39677;DHT22;27789;50.840;4.386;2023-02-28T01:21:09;2.70;99.90
39677;DHT22;27789;50.840;4.386;2023-02-28T01:23:34;2.70;99.90
39677;DHT22;27789;50.840;4.386;2023-02-28T01:26:04;2.60;99.90
39677;DHT22;27789;50.840;4.386;2023-02-28T01:28:30;2.60;99.90
39677;DHT22;27789;50.840;4.386;2023-02-28T01:30:55;2.60;99.90
39677;DHT22;27789;50.840;4.386;2023-02-28T01:33:21;2.60;99.90
39677;DHT22;27789;50.840;4.386;2023-02-28T01:35:46;2.60;99.90
39677;DHT22;27789;50.840;4.386;2023-02-28T01:38:12;2.50;99.90
39677;DHT22;27789;50.840;4.386;2023-02-28T01:40:37;2.50;99.90
39677;DHT22;27789;50.840;4.386;2023-02-28T01:43:04;2.50;99.90
39677;DHT22;27789;50.840;4.386;2023-02-28T01:45:30;2.50;99.90
39677;DHT22;27789;50.840;4.386;2023-02-28T01:48:03;2.50;99.90
39677;DHT22;27789;50.840;4.386;2023-02-28T01:50:31;2.50;99.90
39677;DHT22;27789;50.840;4.386;2023-02-28T01:53:00;2.50;99.90
39677;DHT22;27789;50.840;4.386;2023-02-28T01:55:26;2.40;99.90
39677;DHT22;27789;50.840;4.386;2023-02-28T01:57:55;2.40;99.90
39677;DHT22;27789;50.840;4.386;2023-02-28T02:00:22;2.40;99.90
39677;DHT22;27789;50.840;4.386;2023-02-28T02:02:49;2.40;99.90
39677;DHT22;27789;50.840;4.386;2023-02-28T02:05:17;2.40;99.90
39677;DHT22;27789;50.840;4.386;2023-02-28T02:07:44;4.80;99.90
39677;DHT22;27789;50.840;4.386;2023-02-28T02:15:17;2.30;99.90
39677;DHT22;27789;50.840;4.386;2023-02-28T02:17:45;2.30;99.90
39677;DHT22;27789;50.840;4.386;2023-02-28T02:25:11;2.30;99.90
39677;DHT22;27789;50.840;4.386;2023-02-28T02:32:49;2.20;99.90
39677;DHT22;27789;50.840;4.386;2023-02-28T02:43:19;2.10;99.90
39677;DHT22;27789;50.840;4.386;2023-02-28T02:45:48;2.10;99.90
39677;DHT22;27789;50.840;4.386;2023-02-28T02:48:16;2.10;99.90
39677;DHT22;27789;50.840;4.386;2023-02-28T02:50:44;2.10;99.90
39677;DHT22;27789;50.840;4.386;2023-02-28T02:53:10;2.10;99.90
39677;DHT22;27789;50.840;4.386;2023-02-28T02:55:41;2.10;99.90
39677;DHT22;27789;50.840;4.386;2023-02-28T02:58:10;2.00;99.90
39677;DHT22;27789;50.840;4.386;2023-02-28T03:00:41;2.00;99.90
39677;DHT22;27789;50.840;4.386;2023-02-28T03:03:07;1.90;99.90
39677;DHT22;27789;50.840;4.386;2023-02-28T03:05:36;1.90;99.90
39677;DHT22;27789;50.840;4.386;2023-02-28T03:08:04;1.90;99.90
39677;DHT22;27789;50.840;4.386;2023-02-28T03:10:35;2.00;99.90
39677;DHT22;27789;50.840;4.386;2023-02-28T03:15:34;2.00;99.90
39677;DHT22;27789;50.840;4.386;2023-02-28T03:18:03;2.00;99.90
39677;DHT22;27789;50.840;4.386;2023-02-28T03:36:12;1.90;99.90
39677;DHT22;27789;50.840;4.386;2023-02-28T03:43:43;1.90;99.90
39677;DHT22;27789;50.840;4.386;2023-02-28T03:46:10;1.90;99.90
39677;DHT22;27789;50.840;4.386;2023-02-28T03:51:03;1.90;99.90
39677;DHT22;27789;50.840;4.386;2023-02-28T03:53:34;1.80;99.90
39677;DHT22;27789;50.840;4.386;2023-02-28T04:01:12;1.80;99.90
39677;DHT22;27789;50.840;4.386;2023-02-28T04:03:38;1.80;99.90
39677;DHT22;27789;50.840;4.386;2023-02-28T04:06:04;1.80;99.90
39677;DHT22;27789;50.840;4.386;2023-02-28T04:08:31;1.80;99.90
39677;DHT22;27789;50.840;4.386;2023-02-28T04:13:42;1.80;99.90
39677;DHT22;27789;50.840;4.386;2023-02-28T04:16:08;1.80;99.90
39677;DHT22;27789;50.840;4.386;2023-02-28T04:18:40;1.80;99.90
39677;DHT22;27789;50.840;4.386;2023-02-28T04:21:06;1.70;99.90
39677;DHT22;27789;50.840;4.386;2023-02-28T04:23:32;1.70;99.90
39677;DHT22;27789;50.840;4.386;2023-02-28T04:25:58;1.70;99.90
39677;DHT22;27789;50.840;4.386;2023-02-28T04:28:23;1.70;99.90
39677;DHT22;27789;50.840;4.386;2023-02-28T04:30:59;1.70;99.90
39677;DHT22;27789;50.840;4.386;2023-02-28T04:33:26;1.70;99.90
39677;DHT22;27789;50.840;4.386;2023-02-28T04:36:01;1.70;99.90
39677;DHT22;27789;50.840;4.386;2023-02-28T04:38:28;1.60;99.90
39677;DHT22;27789;50.840;4.386;2023-02-28T04:40:56;1.60;99.90
39677;DHT22;27789;50.840;4.386;2023-02-28T04:43:22;1.60;99.90
39677;DHT22;27789;50.840;4.386;2023-02-28T04:45:47;1.60;99.90
39677;DHT22;27789;50.840;4.386;2023-02-28T04:48:12;1.60;99.90
39677;DHT22;27789;50.840;4.386;2023-02-28T04:50:38;1.60;99.90
39677;DHT22;27789;50.840;4.386;2023-02-28T04:53:03;1.60;99.90
39677;DHT22;27789;50.840;4.386;2023-02-28T04:55:29;1.60;99.90
39677;DHT22;27789;50.840;4.386;2023-02-28T04:57:54;1.60;99.90
39677;DHT22;27789;50.840;4.386;2023-02-28T05:00:20;1.60;99.90
39677;DHT22;27789;50.840;4.386;2023-02-28T05:02:45;1.60;99.90
39677;DHT22;27789;50.840;4.386;2023-02-28T05:05:11;1.60;99.90
39677;DHT22;27789;50.840;4.386;2023-02-28T05:07:43;1.60;99.90
39677;DHT22;27789;50.840;4.386;2023-02-28T05:10:09;1.60;99.90
39677;DHT22;27789;50.840;4.386;2023-02-28T05:12:35;1.70;99.90
39677;DHT22;27789;50.840;4.386;2023-02-28T05:15:00;1.70;99.90
39677;DHT22;27789;50.840;4.386;2023-02-28T05:17:27;1.70;99.90
39677;DHT22;27789;50.840;4.386;2023-02-28T05:19:53;4.40;99.90
39677;DHT22;27789;50.840;4.386;2023-02-28T05:22:18;1.80;99.90
39677;DHT22;27789;50.840;4.386;2023-02-28T05:24:44;1.90;99.90
39677;DHT22;27789;50.840;4.386;2023-02-28T05:27:09;1.90;99.90
39677;DHT22;27789;50.840;4.386;2023-02-28T05:29:35;1.90;99.90
39677;DHT22;27789;50.840;4.386;2023-02-28T05:32:08;1.90;99.90
39677;DHT22;27789;50.840;4.386;2023-02-28T05:34:34;1.90;99.90
39677;DHT22;27789;50.840;4.386;2023-02-28T05:36:59;1.90;99.90
39677;DHT22;27789;50.840;4.386;2023-02-28T05:39:25;1.90;99.90
39677;DHT22;27789;50.840;4.386;2023-02-28T05:41:50;2.00;99.90
39677;DHT22;27789;50.840;4.386;2023-02-28T05:44:15;2.00;99.90
39677;DHT22;27789;50.840;4.386;2023-02-28T05:46:41;2.00;99.90
39677;DHT22;27789;50.840;4.386;2023-02-28T05:49:06;2.00;99.90
39677;DHT22;27789;50.840;4.386;2023-02-28T05:51:32;2.00;99.90
39677;DHT22;27789;50.840;4.386;2023-02-28T05:53:59;2.00;99.90
39677;DHT22;27789;50.840;4.386;2023-02-28T05:56:26;2.10;99.90
39677;DHT22;27789;50.840;4.386;2023-02-28T05:58:51;2.10;99.90
39677;DHT22;27789;50.840;4.386;2023-02-28T06:01:24;2.20;99.90
39677;DHT22;27789;50.840;4.386;2023-02-28T06:03:50;2.20;99.90
39677;DHT22;27789;50.840;4.386;2023-02-28T06:06:15;2.20;99.90
39677;DHT22;27789;50.840;4.386;2023-02-28T06:08:41;2.30;99.90
39677;DHT22;27789;50.840;4.386;2023-02-28T06:11:08;2.30;99.90
39677;DHT22;27789;50.840;4.386;2023-02-28T06:13:34;2.30;99.90
39677;DHT22;27789;50.840;4.386;2023-02-28T06:16:02;2.40;99.90
39677;DHT22;27789;50.840;4.386;2023-02-28T06:18:28;2.40;99.90
39677;DHT22;27789;50.840;4.386;2023-02-28T06:20:54;2.40;99.90
39677;DHT22;27789;50.840;4.386;2023-02-28T06:23:20;2.50;99.90
39677;DHT22;27789;50.840;4.386;2023-02-28T06:25:46;2.40;99.90
39677;DHT22;27789;50.840;4.386;2023-02-28T06:28:11;2.40;99.90
39677;DHT22;27789;50.840;4.386;2023-02-28T06:30:37;2.50;99.90
39677;DHT22;27789;50.840;4.386;2023-02-28T06:33:03;2.40;99.90
39677;DHT22;27789;50.840;4.386;2023-02-28T06:35:28;2.40;99.90
39677;DHT22;27789;50.840;4.386;2023-02-28T06:37:54;2.40;99.90
39677;DHT22;27789;50.840;4.386;2023-02-28T06:40:20;2.40;99.90
39677;DHT22;27789;50.840;4.386;2023-02-28T06:42:45;2.50;99.90
39677;DHT22;27789;50.840;4.386;2023-02-28T06:45:11;2.40;99.90
39677;DHT22;27789;50.840;4.386;2023-02-28T06:47:37;2.40;99.90
39677;DHT22;27789;50.840;4.386;2023-02-28T06:50:03;2.50;99.90
39677;DHT22;27789;50.840;4.386;2023-02-28T06:52:30;2.50;99.90
39677;DHT22;27789;50.840;4.386;2023-02-28T06:54:55;2.50;99.90
39677;DHT22;27789;50.840;4.386;2023-02-28T06:57:27;2.50;99.90
39677;DHT22;27789;50.840;4.386;2023-02-28T06:59:52;2.50;99.90
39677;DHT22;27789;50.840;4.386;2023-02-28T07:02:18;2.50;99.90
39677;DHT22;27789;50.840;4.386;2023-02-28T07:04:43;2.50;99.90
39677;DHT22;27789;50.840;4.386;2023-02-28T07:07:09;2.60;99.90
39677;DHT22;27789;50.840;4.386;2023-02-28T07:09:35;2.60;99.90
39677;DHT22;27789;50.840;4.386;2023-02-28T07:12:00;2.70;99.90
39677;DHT22;27789;50.840;4.386;2023-02-28T07:14:26;2.70;99.90
39677;DHT22;27789;50.840;4.386;2023-02-28T07:16:51;2.80;99.90
39677;DHT22;27789;50.840;4.386;2023-02-28T07:19:17;2.80;99.90
39677;DHT22;27789;50.840;4.386;2023-02-28T07:21:42;2.80;99.90
39677;DHT22;27789;50.840;4.386;2023-02-28T07:24:08;2.80;99.90
39677;DHT22;27789;50.840;4.386;2023-02-28T07:26:33;2.80;99.90
39677;DHT22;27789;50.840;4.386;2023-02-28T07:29:02;2.90;99.90
39677;DHT22;27789;50.840;4.386;2023-02-28T07:31:27;2.90;99.90
39677;DHT22;27789;50.840;4.386;2023-02-28T07:33:53;3.00;99.90
39677;DHT22;27789;50.840;4.386;2023-02-28T07:36:19;3.00;99.90
39677;DHT22;27789;50.840;4.386;2023-02-28T07:38:45;3.00;99.90
39677;DHT22;27789;50.840;4.386;2023-02-28T07:41:13;3.10;99.90
39677;DHT22;27789;50.840;4.386;2023-02-28T07:43:39;3.00;99.90
39677;DHT22;27789;50.840;4.386;2023-02-28T07:46:05;3.00;99.90
39677;DHT22;27789;50.840;4.386;2023-02-28T07:48:31;3.10;99.90
39677;DHT22;27789;50.840;4.386;2023-02-28T07:50:57;3.00;99.90
39677;DHT22;27789;50.840;4.386;2023-02-28T07:53:23;3.10;99.90
39677;DHT22;27789;50.840;4.386;2023-02-28T07:55:48;3.10;99.90
39677;DHT22;27789;50.840;4.386;2023-02-28T07:58:14;3.10;99.90
39677;DHT22;27789;50.840;4.386;2023-02-28T08:00:39;5.80;99.90
39677;DHT22;27789;50.840;4.386;2023-02-28T08:03:05;3.20;99.90
39677;DHT22;27789;50.840;4.386;2023-02-28T08:05:30;3.20;99.90
39677;DHT22;27789;50.840;4.386;2023-02-28T08:07:56;3.30;99.90
39677;DHT22;27789;50.840;4.386;2023-02-28T08:10:21;3.30;99.90
39677;DHT22;27789;50.840;4.386;2023-02-28T08:12:47;3.30;99.90
39677;DHT22;27789;50.840;4.386;2023-02-28T08:15:13;3.30;99.90
39677;DHT22;27789;50.840;4.386;2023-02-28T08:17:38;3.40;99.90
39677;DHT22;27789;50.840;4.386;2023-02-28T08:20:04;3.40;99.90
39677;DHT22;27789;50.840;4.386;2023-02-28T08:22:30;3.60;99.90
39677;DHT22;27789;50.840;4.386;2023-02-28T08:24:56;3.60;99.90
39677;DHT22;27789;50.840;4.386;2023-02-28T08:27:21;3.60;99.90
39677;DHT22;27789;50.840;4.386;2023-02-28T08:29:47;3.60;99.90
39677;DHT22;27789;50.840;4.386;2023-02-28T08:32:12;3.60;99.90
39677;DHT22;27789;50.840;4.386;2023-02-28T08:34:39;3.70;99.90
39677;DHT22;27789;50.840;4.386;2023-02-28T08:37:04;3.80;99.90
39677;DHT22;27789;50.840;4.386;2023-02-28T08:39:35;3.80;99.90
39677;DHT22;27789;50.840;4.386;2023-02-28T08:42:02;3.90;99.90
39677;DHT22;27789;50.840;4.386;2023-02-28T08:44:28;3.90;99.90
39677;DHT22;27789;50.840;4.386;2023-02-28T08:46:53;3.90;99.90
39677;DHT22;27789;50.840;4.386;2023-02-28T08:49:19;3.90;99.90
39677;DHT22;27789;50.840;4.386;2023-02-28T08:51:44;3.90;99.90
39677;DHT22;27789;50.840;4.386;2023-02-28T08:54:10;3.90;99.90
39677;DHT22;27789;50.840;4.386;2023-02-28T08:56:37;3.90;99.90
39677;DHT22;27789;50.840;4.386;2023-02-28T08:59:03;3.90;99.90
39677;DHT22;27789;50.840;4.386;2023-02-28T09:01:28;3.90;99.80
39677;DHT22;27789;50.840;4.386;2023-02-28T09:03:54;3.90;99.80
39677;DHT22;27789;50.840;4.386;2023-02-28T09:06:21;3.90;99.90
39677;DHT22;27789;50.840;4.386;2023-02-28T09:08:47;4.00;99.80
39677;DHT22;27789;50.840;4.386;2023-02-28T09:11:13;4.00;99.90
39677;DHT22;27789;50.840;4.386;2023-02-28T09:13:39;4.00;99.90
39677;DHT22;27789;50.840;4.386;2023-02-28T09:16:05;6.20;99.90
39677;DHT22;27789;50.840;4.386;2023-02-28T09:18:30;4.20;99.40
39677;DHT22;27789;50.840;4.386;2023-02-28T09:20:56;4.20;98.80
39677;DHT22;27789;50.840;4.386;2023-02-28T09:23:23;4.20;98.90
39677;DHT22;27789;50.840;4.386;2023-02-28T09:25:49;4.30;98.50
39677;DHT22;27789;50.840;4.386;2023-02-28T09:28:15;4.30;98.40
39677;DHT22;27789;50.840;4.386;2023-02-28T09:30:42;4.30;97.70
39677;DHT22;27789;50.840;4.386;2023-02-28T09:33:09;4.40;98.10
39677;DHT22;27789;50.840;4.386;2023-02-28T09:35:34;4.50;98.20
39677;DHT22;27789;50.840;4.386;2023-02-28T09:38:02;4.60;97.90
39677;DHT22;27789;50.840;4.386;2023-02-28T09:40:28;4.60;97.40
39677;DHT22;27789;50.840;4.386;2023-02-28T09:42:54;4.60;96.60
39677;DHT22;27789;50.840;4.386;2023-02-28T09:45:24;4.60;96.70
39677;DHT22;27789;50.840;4.386;2023-02-28T09:47:52;4.60;96.80
39677;DHT22;27789;50.840;4.386;2023-02-28T09:52:59;4.90;96.70
39677;DHT22;27789;50.840;4.386;2023-02-28T09:55:28;5.20;96.90
39677;DHT22;27789;50.840;4.386;2023-02-28T09:57:55;5.20;96.00
39677;DHT22;27789;50.840;4.386;2023-02-28T10:00:24;5.20;96.00
39677;DHT22;27789;50.840;4.386;2023-02-28T10:02:56;5.40;95.60
39677;DHT22;27789;50.840;4.386;2023-02-28T10:08:03;6.00;94.70
39677;DHT22;27789;50.840;4.386;2023-02-28T10:10:39;6.90;94.20
39677;DHT22;27789;50.840;4.386;2023-02-28T10:13:06;7.80;93.10
39677;DHT22;27789;50.840;4.386;2023-02-28T10:15:36;8.60;91.80
39677;DHT22;27789;50.840;4.386;2023-02-28T10:18:03;9.70;91.20
39677;DHT22;27789;50.840;4.386;2023-02-28T10:20:30;10.80;90.30
39677;DHT22;27789;50.840;4.386;2023-02-28T10:23:19;11.70;88.70
39677;DHT22;27789;50.840;4.386;2023-02-28T10:25:47;12.40;87.20
39677;DHT22;27789;50.840;4.386;2023-02-28T10:28:16;12.70;85.10
39677;DHT22;27789;50.840;4.386;2023-02-28T10:30:49;13.00;85.20
39677;DHT22;27789;50.840;4.386;2023-02-28T10:33:17;13.40;84.50
39677;DHT22;27789;50.840;4.386;2023-02-28T10:35:44;13.50;83.10
39677;DHT22;27789;50.840;4.386;2023-02-28T10:38:14;13.50;82.50
39677;DHT22;27789;50.840;4.386;2023-02-28T10:40:40;13.80;81.30
39677;DHT22;27789;50.840;4.386;2023-02-28T10:43:27;14.10;81.00
39677;DHT22;27789;50.840;4.386;2023-02-28T10:45:53;14.30;80.00
39677;DHT22;27789;50.840;4.386;2023-02-28T10:55:56;14.70;78.30
39677;DHT22;27789;50.840;4.386;2023-02-28T10:58:23;15.00;78.00
39677;DHT22;27789;50.840;4.386;2023-02-28T11:00:48;15.10;78.40
39677;DHT22;27789;50.840;4.386;2023-02-28T11:05:50;15.60;77.20
39677;DHT22;27789;50.840;4.386;2023-02-28T11:08:16;15.80;76.40
39677;DHT22;27789;50.840;4.386;2023-02-28T11:11:03;15.80;76.00
39677;DHT22;27789;50.840;4.386;2023-02-28T11:13:33;15.80;76.00
39677;DHT22;27789;50.840;4.386;2023-02-28T11:16:00;16.00;75.50
39677;DHT22;27789;50.840;4.386;2023-02-28T11:18:29;15.60;75.60
39677;DHT22;27789;50.840;4.386;2023-02-28T11:20:56;15.50;75.90
39677;DHT22;27789;50.840;4.386;2023-02-28T11:23:23;15.90;76.30
39677;DHT22;27789;50.840;4.386;2023-02-28T11:25:51;16.30;75.70
39677;DHT22;27789;50.840;4.386;2023-02-28T11:31:00;16.00;75.10
39677;DHT22;27789;50.840;4.386;2023-02-28T11:35:52;15.60;75.60
39677;DHT22;27789;50.840;4.386;2023-02-28T11:38:18;15.80;75.10
39677;DHT22;27789;50.840;4.386;2023-02-28T11:40:46;15.60;75.10
39677;DHT22;27789;50.840;4.386;2023-02-28T11:48:30;16.40;73.70
39677;DHT22;27789;50.840;4.386;2023-02-28T11:51:06;16.30;74.50
39677;DHT22;27789;50.840;4.386;2023-02-28T11:53:39;16.90;74.40
39677;DHT22;27789;50.840;4.386;2023-02-28T12:03:45;17.10;73.50
39677;DHT22;27789;50.840;4.386;2023-02-28T12:16:42;14.80;75.10
39677;DHT22;27789;50.840;4.386;2023-02-28T12:22:00;15.80;73.60
39677;DHT22;27789;50.840;4.386;2023-02-28T12:26:54;15.50;74.00
39677;DHT22;27789;50.840;4.386;2023-02-28T12:30:03;16.10;73.10
39677;DHT22;27789;50.840;4.386;2023-02-28T12:35:28;16.80;71.90
39677;DHT22;27789;50.840;4.386;2023-02-28T12:37:36;17.20;72.00
39677;DHT22;27789;50.840;4.386;2023-02-28T12:40:05;17.40;71.50
39677;DHT22;27789;50.840;4.386;2023-02-28T12:42:33;17.40;71.10
39677;DHT22;27789;50.840;4.386;2023-02-28T12:45:02;17.50;70.90
39677;DHT22;27789;50.840;4.386;2023-02-28T12:47:30;17.90;71.20
39677;DHT22;27789;50.840;4.386;2023-02-28T12:52:46;17.80;70.00
39677;DHT22;27789;50.840;4.386;2023-02-28T13:00:29;18.30;70.50
39677;DHT22;27789;50.840;4.386;2023-02-28T13:05:46;18.80;69.80
39677;DHT22;27789;50.840;4.386;2023-02-28T13:10:52;19.20;68.70
39677;DHT22;27789;50.840;4.386;2023-02-28T13:13:22;19.20;68.80
39677;DHT22;27789;50.840;4.386;2023-02-28T13:20:57;19.40;68.30
39677;DHT22;27789;50.840;4.386;2023-02-28T13:25:59;19.20;68.20
39677;DHT22;27789;50.840;4.386;2023-02-28T13:31:05;19.50;68.00
39677;DHT22;27789;50.840;4.386;2023-02-28T13:34:14;19.40;67.70
39677;DHT22;27789;50.840;4.386;2023-02-28T13:38:48;20.10;67.50
39677;DHT22;27789;50.840;4.386;2023-02-28T13:43:59;20.60;67.00
39677;DHT22;27789;50.840;4.386;2023-02-28T13:46:24;20.30;66.80
39677;DHT22;27789;50.840;4.386;2023-02-28T13:48:50;20.10;66.80
39677;DHT22;27789;50.840;4.386;2023-02-28T13:54:00;19.10;66.90
39677;DHT22;27789;50.840;4.386;2023-02-28T13:59:21;16.50;67.80
39677;DHT22;27789;50.840;4.386;2023-02-28T14:02:00;15.40;68.40
39677;DHT22;27789;50.840;4.386;2023-02-28T14:07:04;14.00;70.10
39677;DHT22;27789;50.840;4.386;2023-02-28T14:09:38;13.20;71.40
39677;DHT22;27789;50.840;4.386;2023-02-28T14:17:06;11.50;73.80
39677;DHT22;27789;50.840;4.386;2023-02-28T14:19:33;11.30;74.70
39677;DHT22;27789;50.840;4.386;2023-02-28T14:37:29;9.70;77.30
39677;DHT22;27789;50.840;4.386;2023-02-28T14:39:56;9.60;78.10
39677;DHT22;27789;50.840;4.386;2023-02-28T14:42:29;9.50;77.70
39677;DHT22;27789;50.840;4.386;2023-02-28T14:44:55;9.50;78.10
39677;DHT22;27789;50.840;4.386;2023-02-28T14:47:25;9.50;77.90
39677;DHT22;27789;50.840;4.386;2023-02-28T14:49:52;9.30;78.10
39677;DHT22;27789;50.840;4.386;2023-02-28T14:52:25;9.30;78.30
39677;DHT22;27789;50.840;4.386;2023-02-28T14:54:56;9.30;78.80
39677;DHT22;27789;50.840;4.386;2023-02-28T14:57:24;9.20;79.60
39677;DHT22;27789;50.840;4.386;2023-02-28T15:02:23;9.30;79.60
39677;DHT22;27789;50.840;4.386;2023-02-28T15:04:54;9.40;79.10
39677;DHT22;27789;50.840;4.386;2023-02-28T15:07:20;9.90;79.00
39677;DHT22;27789;50.840;4.386;2023-02-28T15:12:29;10.50;78.30
39677;DHT22;27789;50.840;4.386;2023-02-28T15:14:55;10.50;79.00
39677;DHT22;27789;50.840;4.386;2023-02-28T15:17:22;10.80;78.00
39677;DHT22;27789;50.840;4.386;2023-02-28T15:19:48;11.10;77.70
39677;DHT22;27789;50.840;4.386;2023-02-28T15:22:17;11.00;78.00
39677;DHT22;27789;50.840;4.386;2023-02-28T15:24:44;10.90;77.90
39677;DHT22;27789;50.840;4.386;2023-02-28T15:27:12;10.70;78.10
39677;DHT22;27789;50.840;4.386;2023-02-28T15:29:43;10.40;78.70
39677;DHT22;27789;50.840;4.386;2023-02-28T15:32:16;10.00;79.10
39677;DHT22;27789;50.840;4.386;2023-02-28T15:34:45;9.70;80.00
39677;DHT22;27789;50.840;4.386;2023-02-28T15:39:47;9.50;80.60
39677;DHT22;27789;50.840;4.386;2023-02-28T15:42:18;9.50;80.70
39677;DHT22;27789;50.840;4.386;2023-02-28T15:44:43;9.40;81.20
39677;DHT22;27789;50.840;4.386;2023-02-28T15:47:16;9.00;80.90
39677;DHT22;27789;50.840;4.386;2023-02-28T15:52:13;8.50;81.90
39677;DHT22;27789;50.840;4.386;2023-02-28T15:54:39;8.30;82.00
39677;DHT22;27789;50.840;4.386;2023-02-28T15:57:05;11.10;84.40
39677;DHT22;27789;50.840;4.386;2023-02-28T15:59:33;8.00;83.10
39677;DHT22;27789;50.840;4.386;2023-02-28T16:02:11;7.90;83.50
39677;DHT22;27789;50.840;4.386;2023-02-28T16:04:37;7.80;83.80
39677;DHT22;27789;50.840;4.386;2023-02-28T16:07:19;7.70;83.90
39677;DHT22;27789;50.840;4.386;2023-02-28T16:09:44;7.70;83.90
39677;DHT22;27789;50.840;4.386;2023-02-28T16:12:10;7.60;84.50
39677;DHT22;27789;50.840;4.386;2023-02-28T16:14:38;7.50;84.60
39677;DHT22;27789;50.840;4.386;2023-02-28T16:17:06;7.40;84.80
39677;DHT22;27789;50.840;4.386;2023-02-28T16:19:34;7.30;85.10
39677;DHT22;27789;50.840;4.386;2023-02-28T16:21:59;7.20;85.10
39677;DHT22;27789;50.840;4.386;2023-02-28T16:24:25;7.20;85.40
39677;DHT22;27789;50.840;4.386;2023-02-28T16:26:51;7.10;85.50
39677;DHT22;27789;50.840;4.386;2023-02-28T16:29:24;7.00;85.80
39677;DHT22;27789;50.840;4.386;2023-02-28T16:31:50;7.00;86.10
39677;DHT22;27789;50.840;4.386;2023-02-28T16:34:15;6.80;86.50
39677;DHT22;27789;50.840;4.386;2023-02-28T16:36:41;6.80;87.20
39677;DHT22;27789;50.840;4.386;2023-02-28T16:39:06;6.70;87.40
39677;DHT22;27789;50.840;4.386;2023-02-28T16:41:32;6.70;87.80
39677;DHT22;27789;50.840;4.386;2023-02-28T16:43:58;6.70;87.80
39677;DHT22;27789;50.840;4.386;2023-02-28T16:46:30;6.60;88.00
39677;DHT22;27789;50.840;4.386;2023-02-28T16:48:56;6.70;87.90
39677;DHT22;27789;50.840;4.386;2023-02-28T16:51:22;6.60;87.60
39677;DHT22;27789;50.840;4.386;2023-02-28T16:53:47;6.60;88.10
39677;DHT22;27789;50.840;4.386;2023-02-28T16:56:17;6.60;88.40
39677;DHT22;27789;50.840;4.386;2023-02-28T16:58:44;6.50;88.70
39677;DHT22;27789;50.840;4.386;2023-02-28T17:01:10;6.50;88.60
39677;DHT22;27789;50.840;4.386;2023-02-28T17:03:35;6.40;88.60
39677;DHT22;27789;50.840;4.386;2023-02-28T17:06:02;6.40;89.20
39677;DHT22;27789;50.840;4.386;2023-02-28T17:08:28;6.30;89.10
39677;DHT22;27789;50.840;4.386;2023-02-28T17:10:55;6.30;89.40
39677;DHT22;27789;50.840;4.386;2023-02-28T17:13:20;6.30;89.50
39677;DHT22;27789;50.840;4.386;2023-02-28T17:15:46;6.30;89.80
39677;DHT22;27789;50.840;4.386;2023-02-28T17:18:13;6.30;89.80
39677;DHT22;27789;50.840;4.386;2023-02-28T17:20:40;6.20;89.80
39677;DHT22;27789;50.840;4.386;2023-02-28T17:23:07;6.20;89.80
39677;DHT22;27789;50.840;4.386;2023-02-28T17:25:33;6.20;90.10
39677;DHT22;27789;50.840;4.386;2023-02-28T17:27:58;6.10;90.00
39677;DHT22;27789;50.840;4.386;2023-02-28T17:30:25;6.10;90.00
39677;DHT22;27789;50.840;4.386;2023-02-28T17:32:53;6.10;90.20
39677;DHT22;27789;50.840;4.386;2023-02-28T17:35:18;6.00;90.20
39677;DHT22;27789;50.840;4.386;2023-02-28T17:37:44;6.00;90.40
39677;DHT22;27789;50.840;4.386;2023-02-28T17:40:13;5.90;90.30
39677;DHT22;27789;50.840;4.386;2023-02-28T17:42:38;5.90;90.30
39677;DHT22;27789;50.840;4.386;2023-02-28T17:45:04;5.90;90.40
39677;DHT22;27789;50.840;4.386;2023-02-28T17:47:29;5.90;90.50
39677;DHT22;27789;50.840;4.386;2023-02-28T17:49:55;5.90;90.60
39677;DHT22;27789;50.840;4.386;2023-02-28T17:52:20;5.90;90.50
39677;DHT22;27789;50.840;4.386;2023-02-28T17:54:47;5.90;90.70
39677;DHT22;27789;50.840;4.386;2023-02-28T17:57:15;5.90;90.80
39677;DHT22;27789;50.840;4.386;2023-02-28T17:59:41;5.80;90.60
39677;DHT22;27789;50.840;4.386;2023-02-28T18:02:08;5.80;90.70
39677;DHT22;27789;50.840;4.386;2023-02-28T18:04:34;5.80;90.90
39677;DHT22;27789;50.840;4.386;2023-02-28T18:06:59;5.80;90.90
39677;DHT22;27789;50.840;4.386;2023-02-28T18:09:25;5.80;90.90
39677;DHT22;27789;50.840;4.386;2023-02-28T18:11:52;5.70;90.90
39677;DHT22;27789;50.840;4.386;2023-02-28T18:14:19;5.70;91.10
39677;DHT22;27789;50.840;4.386;2023-02-28T18:16:45;5.70;91.20
39677;DHT22;27789;50.840;4.386;2023-02-28T18:19:11;5.70;91.00
39677;DHT22;27789;50.840;4.386;2023-02-28T18:21:40;5.70;91.20
39677;DHT22;27789;50.840;4.386;2023-02-28T18:24:06;5.70;91.10
39677;DHT22;27789;50.840;4.386;2023-02-28T18:26:32;5.60;91.20
39677;DHT22;27789;50.840;4.386;2023-02-28T18:28:57;5.60;91.20
39677;DHT22;27789;50.840;4.386;2023-02-28T18:31:23;5.60;91.40
39677;DHT22;27789;50.840;4.386;2023-02-28T18:33:49;5.50;91.50
39677;DHT22;27789;50.840;4.386;2023-02-28T18:36:15;5.50;91.60
39677;DHT22;27789;50.840;4.386;2023-02-28T18:38:40;5.50;91.70